sensor_id;sensor_type;location;lat;lon;timestamp;P1;durP1;ratioP1;P2;durP2;ratioP2
20894;SDS011;10607;42.066;24.742;2023-07-29T00:01:40;6.90;;;2.30;;
20894;SDS011;10607;42.066;24.742;2023-07-29T00:04:06;6.38;;;2.58;;
20894;SDS011;10607;42.066;24.742;2023-07-29T00:06:31;3.28;;;2.10;;
20894;SDS011;10607;42.066;24.742;2023-07-29T00:08:56;4.35;;;2.55;;
20894;SDS011;10607;42.066;24.742;2023-07-29T00:11:22;3.65;;;2.15;;
20894;SDS011;10607;42.066;24.742;2023-07-29T00:13:47;3.25;;;2.30;;
20894;SDS011;10607;42.066;24.742;2023-07-29T00:16:15;5.32;;;2.40;;
20894;SDS011;10607;42.066;24.742;2023-07-29T00:18:42;8.77;;;2.97;;
20894;SDS011;10607;42.066;24.742;2023-07-29T00:21:07;3.85;;;2.45;;
20894;SDS011;10607;42.066;24.742;2023-07-29T00:23:32;3.13;;;2.40;;
20894;SDS011;10607;42.066;24.742;2023-07-29T00:25:58;3.47;;;2.10;;
20894;SDS011;10607;42.066;24.742;2023-07-29T00:28:23;6.00;;;2.40;;
20894;SDS011;10607;42.066;24.742;2023-07-29T00:30:48;3.65;;;2.67;;
20894;SDS011;10607;42.066;24.742;2023-07-29T00:33:13;3.92;;;2.10;;
20894;SDS011;10607;42.066;24.742;2023-07-29T00:35:39;3.08;;;2.55;;
20894;SDS011;10607;42.066;24.742;2023-07-29T00:38:04;3.72;;;1.98;;
20894;SDS011;10607;42.066;24.742;2023-07-29T00:40:29;2.55;;;2.05;;
20894;SDS011;10607;42.066;24.742;2023-07-29T00:42:55;3.30;;;2.28;;
20894;SDS011;10607;42.066;24.742;2023-07-29T00:45:21;5.82;;;2.42;;
20894;SDS011;10607;42.066;24.742;2023-07-29T00:47:46;4.13;;;2.50;;
20894;SDS011;10607;42.066;24.742;2023-07-29T00:50:12;4.78;;;2.53;;
20894;SDS011;10607;42.066;24.742;2023-07-29T00:52:38;7.13;;;2.63;;
20894;SDS011;10607;42.066;24.742;2023-07-29T00:55:04;5.50;;;2.35;;
20894;SDS011;10607;42.066;24.742;2023-07-29T00:57:29;7.75;;;2.80;;
20894;SDS011;10607;42.066;24.742;2023-07-29T00:59:55;3.60;;;2.58;;
20894;SDS011;10607;42.066;24.742;2023-07-29T01:02:21;4.95;;;2.72;;
20894;SDS011;10607;42.066;24.742;2023-07-29T01:04:51;9.55;;;3.28;;
20894;SDS011;10607;42.066;24.742;2023-07-29T01:07:29;4.28;;;2.70;;
20894;SDS011;10607;42.066;24.742;2023-07-29T01:10:39;4.30;;;2.30;;
20894;SDS011;10607;42.066;24.742;2023-07-29T01:15:14;9.25;;;2.45;;
20894;SDS011;10607;42.066;24.742;2023-07-29T01:18:02;3.65;;;2.45;;
20894;SDS011;10607;42.066;24.742;2023-07-29T01:20:29;6.00;;;2.88;;
20894;SDS011;10607;42.066;24.742;2023-07-29T01:22:57;6.68;;;2.90;;
20894;SDS011;10607;42.066;24.742;2023-07-29T01:25:22;8.27;;;3.30;;
20894;SDS011;10607;42.066;24.742;2023-07-29T01:27:48;6.80;;;2.70;;
20894;SDS011;10607;42.066;24.742;2023-07-29T01:30:14;5.13;;;2.63;;
20894;SDS011;10607;42.066;24.742;2023-07-29T01:37:42;7.95;;;3.10;;
20894;SDS011;10607;42.066;24.742;2023-07-29T01:40:09;5.22;;;3.03;;
20894;SDS011;10607;42.066;24.742;2023-07-29T01:42:35;5.95;;;2.90;;
20894;SDS011;10607;42.066;24.742;2023-07-29T01:45:01;9.68;;;2.65;;
20894;SDS011;10607;42.066;24.742;2023-07-29T01:47:26;9.05;;;2.60;;
20894;SDS011;10607;42.066;24.742;2023-07-29T01:49:51;8.05;;;3.13;;
20894;SDS011;10607;42.066;24.742;2023-07-29T01:52:16;4.78;;;3.22;;
20894;SDS011;10607;42.066;24.742;2023-07-29T01:54:42;5.78;;;2.65;;
20894;SDS011;10607;42.066;24.742;2023-07-29T01:57:07;3.15;;;2.33;;
20894;SDS011;10607;42.066;24.742;2023-07-29T01:59:32;5.72;;;3.00;;
20894;SDS011;10607;42.066;24.742;2023-07-29T02:01:58;7.63;;;3.35;;
20894;SDS011;10607;42.066;24.742;2023-07-29T02:04:23;5.60;;;2.80;;
20894;SDS011;10607;42.066;24.742;2023-07-29T02:06:48;5.10;;;2.47;;
20894;SDS011;10607;42.066;24.742;2023-07-29T02:09:14;6.55;;;2.53;;
20894;SDS011;10607;42.066;24.742;2023-07-29T02:11:39;2.67;;;2.40;;
20894;SDS011;10607;42.066;24.742;2023-07-29T02:14:04;3.35;;;2.60;;
20894;SDS011;10607;42.066;24.742;2023-07-29T02:16:30;5.45;;;2.70;;
20894;SDS011;10607;42.066;24.742;2023-07-29T02:18:55;3.45;;;2.60;;
20894;SDS011;10607;42.066;24.742;2023-07-29T02:21:20;5.93;;;2.47;;
20894;SDS011;10607;42.066;24.742;2023-07-29T02:23:46;2.70;;;2.47;;
20894;SDS011;10607;42.066;24.742;2023-07-29T02:26:11;4.18;;;3.17;;
20894;SDS011;10607;42.066;24.742;2023-07-29T02:28:36;7.78;;;2.88;;
20894;SDS011;10607;42.066;24.742;2023-07-29T02:31:19;5.57;;;2.45;;
20894;SDS011;10607;42.066;24.742;2023-07-29T02:33:45;4.00;;;2.58;;
20894;SDS011;10607;42.066;24.742;2023-07-29T02:36:11;4.65;;;3.00;;
20894;SDS011;10607;42.066;24.742;2023-07-29T02:38:36;5.03;;;2.60;;
20894;SDS011;10607;42.066;24.742;2023-07-29T02:41:02;3.72;;;2.97;;
20894;SDS011;10607;42.066;24.742;2023-07-29T02:43:27;9.15;;;3.30;;
20894;SDS011;10607;42.066;24.742;2023-07-29T02:45:52;4.53;;;3.10;;
20894;SDS011;10607;42.066;24.742;2023-07-29T02:48:17;3.60;;;2.80;;
20894;SDS011;10607;42.066;24.742;2023-07-29T02:50:43;8.63;;;2.67;;
20894;SDS011;10607;42.066;24.742;2023-07-29T02:53:08;4.07;;;2.80;;
20894;SDS011;10607;42.066;24.742;2023-07-29T02:55:33;5.57;;;2.58;;
20894;SDS011;10607;42.066;24.742;2023-07-29T02:57:59;8.20;;;2.70;;
20894;SDS011;10607;42.066;24.742;2023-07-29T03:00:24;9.07;;;2.83;;
20894;SDS011;10607;42.066;24.742;2023-07-29T03:02:49;9.73;;;2.40;;
20894;SDS011;10607;42.066;24.742;2023-07-29T03:05:15;5.10;;;2.60;;
20894;SDS011;10607;42.066;24.742;2023-07-29T03:07:40;3.20;;;2.55;;
20894;SDS011;10607;42.066;24.742;2023-07-29T03:10:05;3.72;;;2.85;;
20894;SDS011;10607;42.066;24.742;2023-07-29T03:12:31;4.43;;;2.50;;
20894;SDS011;10607;42.066;24.742;2023-07-29T03:14:56;8.25;;;2.83;;
20894;SDS011;10607;42.066;24.742;2023-07-29T03:17:22;3.47;;;2.50;;
20894;SDS011;10607;42.066;24.742;2023-07-29T03:19:47;4.72;;;2.97;;
20894;SDS011;10607;42.066;24.742;2023-07-29T03:22:12;6.30;;;2.63;;
20894;SDS011;10607;42.066;24.742;2023-07-29T03:24:37;7.45;;;3.15;;
20894;SDS011;10607;42.066;24.742;2023-07-29T03:27:03;5.53;;;2.83;;
20894;SDS011;10607;42.066;24.742;2023-07-29T03:29:28;6.55;;;3.05;;
20894;SDS011;10607;42.066;24.742;2023-07-29T03:31:53;9.13;;;3.00;;
20894;SDS011;10607;42.066;24.742;2023-07-29T03:34:20;4.13;;;2.72;;
20894;SDS011;10607;42.066;24.742;2023-07-29T03:36:45;7.28;;;3.15;;
20894;SDS011;10607;42.066;24.742;2023-07-29T03:39:12;5.40;;;2.88;;
20894;SDS011;10607;42.066;24.742;2023-07-29T03:41:38;6.35;;;2.92;;
20894;SDS011;10607;42.066;24.742;2023-07-29T03:44:03;6.25;;;2.65;;
20894;SDS011;10607;42.066;24.742;2023-07-29T03:46:29;5.20;;;2.80;;
20894;SDS011;10607;42.066;24.742;2023-07-29T03:48:54;3.22;;;2.78;;
20894;SDS011;10607;42.066;24.742;2023-07-29T03:51:19;4.32;;;2.67;;
20894;SDS011;10607;42.066;24.742;2023-07-29T03:53:45;5.30;;;3.35;;
20894;SDS011;10607;42.066;24.742;2023-07-29T03:56:11;3.78;;;2.60;;
20894;SDS011;10607;42.066;24.742;2023-07-29T03:58:36;7.57;;;2.95;;
20894;SDS011;10607;42.066;24.742;2023-07-29T04:01:01;5.15;;;3.33;;
20894;SDS011;10607;42.066;24.742;2023-07-29T04:03:27;4.68;;;2.70;;
20894;SDS011;10607;42.066;24.742;2023-07-29T04:05:52;2.95;;;2.70;;
20894;SDS011;10607;42.066;24.742;2023-07-29T04:08:18;8.07;;;2.90;;
20894;SDS011;10607;42.066;24.742;2023-07-29T04:10:43;5.78;;;3.38;;
20894;SDS011;10607;42.066;24.742;2023-07-29T04:13:08;4.25;;;3.03;;
20894;SDS011;10607;42.066;24.742;2023-07-29T04:15:34;4.53;;;3.28;;
20894;SDS011;10607;42.066;24.742;2023-07-29T04:17:59;5.90;;;2.70;;
20894;SDS011;10607;42.066;24.742;2023-07-29T04:20:24;8.30;;;3.40;;
20894;SDS011;10607;42.066;24.742;2023-07-29T04:22:50;4.85;;;3.78;;
20894;SDS011;10607;42.066;24.742;2023-07-29T04:25:15;12.25;;;4.53;;
20894;SDS011;10607;42.066;24.742;2023-07-29T04:27:40;4.82;;;3.92;;
20894;SDS011;10607;42.066;24.742;2023-07-29T04:30:06;6.15;;;3.50;;
20894;SDS011;10607;42.066;24.742;2023-07-29T04:32:31;6.03;;;3.92;;
20894;SDS011;10607;42.066;24.742;2023-07-29T04:34:56;6.45;;;3.67;;
20894;SDS011;10607;42.066;24.742;2023-07-29T04:37:22;5.75;;;3.80;;
20894;SDS011;10607;42.066;24.742;2023-07-29T04:39:47;7.70;;;3.90;;
20894;SDS011;10607;42.066;24.742;2023-07-29T04:42:12;4.78;;;3.70;;
20894;SDS011;10607;42.066;24.742;2023-07-29T04:44:38;6.65;;;3.92;;
20894;SDS011;10607;42.066;24.742;2023-07-29T04:47:04;5.55;;;3.47;;
20894;SDS011;10607;42.066;24.742;2023-07-29T04:49:29;8.57;;;4.00;;
20894;SDS011;10607;42.066;24.742;2023-07-29T04:51:54;6.70;;;4.00;;
20894;SDS011;10607;42.066;24.742;2023-07-29T04:54:20;7.00;;;3.80;;
20894;SDS011;10607;42.066;24.742;2023-07-29T04:56:46;10.40;;;4.32;;
20894;SDS011;10607;42.066;24.742;2023-07-29T04:59:11;7.05;;;3.95;;
20894;SDS011;10607;42.066;24.742;2023-07-29T05:01:38;4.90;;;3.70;;
20894;SDS011;10607;42.066;24.742;2023-07-29T05:04:03;8.38;;;5.05;;
20894;SDS011;10607;42.066;24.742;2023-07-29T05:06:28;7.40;;;3.97;;
20894;SDS011;10607;42.066;24.742;2023-07-29T05:08:54;9.05;;;4.47;;
20894;SDS011;10607;42.066;24.742;2023-07-29T05:11:19;8.18;;;4.00;;
20894;SDS011;10607;42.066;24.742;2023-07-29T05:13:44;7.72;;;4.13;;
20894;SDS011;10607;42.066;24.742;2023-07-29T05:16:10;9.38;;;4.28;;
20894;SDS011;10607;42.066;24.742;2023-07-29T05:18:35;11.52;;;4.45;;
20894;SDS011;10607;42.066;24.742;2023-07-29T05:21:00;9.02;;;4.35;;
20894;SDS011;10607;42.066;24.742;2023-07-29T05:23:25;5.38;;;3.60;;
20894;SDS011;10607;42.066;24.742;2023-07-29T05:25:51;11.30;;;3.35;;
20894;SDS011;10607;42.066;24.742;2023-07-29T05:28:16;5.38;;;3.63;;
20894;SDS011;10607;42.066;24.742;2023-07-29T05:30:43;9.27;;;3.97;;
20894;SDS011;10607;42.066;24.742;2023-07-29T05:33:08;12.00;;;3.97;;
20894;SDS011;10607;42.066;24.742;2023-07-29T05:35:33;6.15;;;4.18;;
20894;SDS011;10607;42.066;24.742;2023-07-29T05:37:59;9.40;;;3.50;;
20894;SDS011;10607;42.066;24.742;2023-07-29T05:40:24;7.97;;;3.70;;
20894;SDS011;10607;42.066;24.742;2023-07-29T05:42:49;8.88;;;3.55;;
20894;SDS011;10607;42.066;24.742;2023-07-29T05:45:14;9.60;;;3.53;;
20894;SDS011;10607;42.066;24.742;2023-07-29T05:47:40;5.75;;;3.45;;
20894;SDS011;10607;42.066;24.742;2023-07-29T05:50:05;5.82;;;3.88;;
20894;SDS011;10607;42.066;24.742;2023-07-29T05:52:31;7.45;;;3.60;;
20894;SDS011;10607;42.066;24.742;2023-07-29T05:54:56;10.30;;;3.58;;
20894;SDS011;10607;42.066;24.742;2023-07-29T05:57:22;7.53;;;3.33;;
20894;SDS011;10607;42.066;24.742;2023-07-29T05:59:47;14.32;;;3.67;;
20894;SDS011;10607;42.066;24.742;2023-07-29T06:02:12;5.65;;;3.30;;
20894;SDS011;10607;42.066;24.742;2023-07-29T06:04:38;9.60;;;3.63;;
20894;SDS011;10607;42.066;24.742;2023-07-29T06:07:03;5.43;;;3.60;;
20894;SDS011;10607;42.066;24.742;2023-07-29T06:09:28;7.20;;;3.85;;
20894;SDS011;10607;42.066;24.742;2023-07-29T06:11:54;7.78;;;3.72;;
20894;SDS011;10607;42.066;24.742;2023-07-29T06:14:19;9.35;;;3.80;;
20894;SDS011;10607;42.066;24.742;2023-07-29T06:16:44;5.55;;;3.55;;
20894;SDS011;10607;42.066;24.742;2023-07-29T06:19:10;5.88;;;3.67;;
20894;SDS011;10607;42.066;24.742;2023-07-29T06:21:35;5.20;;;3.30;;
20894;SDS011;10607;42.066;24.742;2023-07-29T06:24:01;9.45;;;3.33;;
20894;SDS011;10607;42.066;24.742;2023-07-29T06:26:26;9.60;;;3.20;;
20894;SDS011;10607;42.066;24.742;2023-07-29T06:28:51;11.10;;;3.08;;
20894;SDS011;10607;42.066;24.742;2023-07-29T06:31:17;4.53;;;3.28;;
20894;SDS011;10607;42.066;24.742;2023-07-29T06:33:42;7.32;;;3.67;;
20894;SDS011;10607;42.066;24.742;2023-07-29T06:36:07;4.70;;;3.47;;
20894;SDS011;10607;42.066;24.742;2023-07-29T06:38:33;9.32;;;3.35;;
20894;SDS011;10607;42.066;24.742;2023-07-29T06:40:58;4.38;;;2.97;;
20894;SDS011;10607;42.066;24.742;2023-07-29T06:43:23;4.40;;;3.30;;
20894;SDS011;10607;42.066;24.742;2023-07-29T06:45:48;7.57;;;3.00;;
20894;SDS011;10607;42.066;24.742;2023-07-29T06:48:14;11.40;;;3.33;;
20894;SDS011;10607;42.066;24.742;2023-07-29T06:50:39;4.45;;;3.00;;
20894;SDS011;10607;42.066;24.742;2023-07-29T06:53:04;14.95;;;3.45;;
20894;SDS011;10607;42.066;24.742;2023-07-29T06:55:30;5.68;;;3.13;;
20894;SDS011;10607;42.066;24.742;2023-07-29T06:57:55;6.55;;;3.10;;
20894;SDS011;10607;42.066;24.742;2023-07-29T07:00:20;13.70;;;3.35;;
20894;SDS011;10607;42.066;24.742;2023-07-29T07:02:46;10.05;;;3.03;;
20894;SDS011;10607;42.066;24.742;2023-07-29T07:05:11;10.07;;;3.40;;
20894;SDS011;10607;42.066;24.742;2023-07-29T07:07:36;11.77;;;2.85;;
20894;SDS011;10607;42.066;24.742;2023-07-29T07:10:02;7.47;;;3.05;;
20894;SDS011;10607;42.066;24.742;2023-07-29T07:12:28;7.68;;;3.63;;
20894;SDS011;10607;42.066;24.742;2023-07-29T07:14:53;6.95;;;3.22;;
20894;SDS011;10607;42.066;24.742;2023-07-29T07:17:18;8.55;;;2.92;;
20894;SDS011;10607;42.066;24.742;2023-07-29T07:19:44;7.18;;;2.70;;
20894;SDS011;10607;42.066;24.742;2023-07-29T07:22:09;7.40;;;2.80;;
20894;SDS011;10607;42.066;24.742;2023-07-29T07:24:34;7.10;;;3.00;;
20894;SDS011;10607;42.066;24.742;2023-07-29T07:27:00;11.65;;;2.90;;
20894;SDS011;10607;42.066;24.742;2023-07-29T07:29:25;8.80;;;3.13;;
20894;SDS011;10607;42.066;24.742;2023-07-29T07:31:51;7.10;;;3.00;;
20894;SDS011;10607;42.066;24.742;2023-07-29T07:34:17;10.07;;;2.65;;
20894;SDS011;10607;42.066;24.742;2023-07-29T07:36:43;7.72;;;3.13;;
20894;SDS011;10607;42.066;24.742;2023-07-29T07:39:08;9.73;;;3.38;;
20894;SDS011;10607;42.066;24.742;2023-07-29T07:41:33;3.75;;;2.22;;
20894;SDS011;10607;42.066;24.742;2023-07-29T07:43:58;6.25;;;2.70;;
20894;SDS011;10607;42.066;24.742;2023-07-29T07:46:24;10.68;;;2.90;;
20894;SDS011;10607;42.066;24.742;2023-07-29T07:48:49;7.15;;;2.33;;
20894;SDS011;10607;42.066;24.742;2023-07-29T07:51:14;4.30;;;2.45;;
20894;SDS011;10607;42.066;24.742;2023-07-29T07:53:40;5.25;;;2.72;;
20894;SDS011;10607;42.066;24.742;2023-07-29T07:56:05;4.03;;;2.83;;
20894;SDS011;10607;42.066;24.742;2023-07-29T07:58:31;14.68;;;3.17;;
20894;SDS011;10607;42.066;24.742;2023-07-29T08:01:03;6.65;;;3.13;;
20894;SDS011;10607;42.066;24.742;2023-07-29T08:03:28;9.23;;;2.75;;
20894;SDS011;10607;42.066;24.742;2023-07-29T08:05:53;8.52;;;2.67;;
20894;SDS011;10607;42.066;24.742;2023-07-29T08:08:19;5.70;;;2.92;;
20894;SDS011;10607;42.066;24.742;2023-07-29T08:10:44;9.93;;;2.90;;
20894;SDS011;10607;42.066;24.742;2023-07-29T08:13:09;4.03;;;2.55;;
20894;SDS011;10607;42.066;24.742;2023-07-29T08:15:34;3.10;;;2.80;;
20894;SDS011;10607;42.066;24.742;2023-07-29T08:18:00;6.15;;;2.72;;
20894;SDS011;10607;42.066;24.742;2023-07-29T08:20:25;6.72;;;2.63;;
20894;SDS011;10607;42.066;24.742;2023-07-29T08:22:50;6.32;;;2.72;;
20894;SDS011;10607;42.066;24.742;2023-07-29T08:25:16;6.25;;;3.05;;
20894;SDS011;10607;42.066;24.742;2023-07-29T08:27:41;4.30;;;2.65;;
20894;SDS011;10607;42.066;24.742;2023-07-29T08:30:06;5.25;;;2.53;;
20894;SDS011;10607;42.066;24.742;2023-07-29T08:32:32;5.18;;;2.55;;
20894;SDS011;10607;42.066;24.742;2023-07-29T08:34:57;5.50;;;2.42;;
20894;SDS011;10607;42.066;24.742;2023-07-29T08:37:22;6.75;;;2.65;;
20894;SDS011;10607;42.066;24.742;2023-07-29T08:39:48;5.57;;;3.05;;
20894;SDS011;10607;42.066;24.742;2023-07-29T08:42:13;2.72;;;2.47;;
20894;SDS011;10607;42.066;24.742;2023-07-29T08:44:43;5.10;;;2.55;;
20894;SDS011;10607;42.066;24.742;2023-07-29T08:47:09;7.00;;;2.65;;
20894;SDS011;10607;42.066;24.742;2023-07-29T08:49:35;10.18;;;3.00;;
20894;SDS011;10607;42.066;24.742;2023-07-29T08:52:00;4.30;;;2.40;;
20894;SDS011;10607;42.066;24.742;2023-07-29T08:54:26;8.70;;;2.60;;
20894;SDS011;10607;42.066;24.742;2023-07-29T08:56:51;5.75;;;2.70;;
20894;SDS011;10607;42.066;24.742;2023-07-29T08:59:17;3.90;;;2.40;;
20894;SDS011;10607;42.066;24.742;2023-07-29T09:01:43;5.57;;;2.40;;
20894;SDS011;10607;42.066;24.742;2023-07-29T09:04:08;5.18;;;2.50;;
20894;SDS011;10607;42.066;24.742;2023-07-29T09:06:34;3.85;;;2.33;;
20894;SDS011;10607;42.066;24.742;2023-07-29T09:09:00;22.85;;;3.10;;
20894;SDS011;10607;42.066;24.742;2023-07-29T09:11:25;6.70;;;2.53;;
20894;SDS011;10607;42.066;24.742;2023-07-29T09:13:51;12.30;;;2.72;;
20894;SDS011;10607;42.066;24.742;2023-07-29T09:16:17;7.65;;;2.75;;
20894;SDS011;10607;42.066;24.742;2023-07-29T09:18:43;7.07;;;2.47;;
20894;SDS011;10607;42.066;24.742;2023-07-29T09:21:08;8.52;;;2.90;;
20894;SDS011;10607;42.066;24.742;2023-07-29T09:23:43;10.27;;;3.10;;
20894;SDS011;10607;42.066;24.742;2023-07-29T09:26:09;5.68;;;2.25;;
20894;SDS011;10607;42.066;24.742;2023-07-29T09:28:34;6.05;;;2.53;;
20894;SDS011;10607;42.066;24.742;2023-07-29T09:31:00;3.80;;;2.80;;
20894;SDS011;10607;42.066;24.742;2023-07-29T09:33:26;5.70;;;2.17;;
20894;SDS011;10607;42.066;24.742;2023-07-29T09:35:51;3.65;;;2.28;;
20894;SDS011;10607;42.066;24.742;2023-07-29T09:38:17;6.78;;;2.55;;
20894;SDS011;10607;42.066;24.742;2023-07-29T09:40:42;6.50;;;2.75;;
20894;SDS011;10607;42.066;24.742;2023-07-29T09:43:10;4.70;;;2.20;;
20894;SDS011;10607;42.066;24.742;2023-07-29T09:45:36;6.85;;;2.47;;
20894;SDS011;10607;42.066;24.742;2023-07-29T09:48:01;5.25;;;2.60;;
20894;SDS011;10607;42.066;24.742;2023-07-29T09:50:28;5.28;;;2.70;;
20894;SDS011;10607;42.066;24.742;2023-07-29T09:52:53;7.93;;;2.60;;
20894;SDS011;10607;42.066;24.742;2023-07-29T09:55:22;5.55;;;2.08;;
20894;SDS011;10607;42.066;24.742;2023-07-29T09:57:57;6.47;;;2.38;;
20894;SDS011;10607;42.066;24.742;2023-07-29T10:00:26;4.57;;;2.15;;
20894;SDS011;10607;42.066;24.742;2023-07-29T10:02:52;5.07;;;2.10;;
20894;SDS011;10607;42.066;24.742;2023-07-29T10:05:18;3.53;;;2.05;;
20894;SDS011;10607;42.066;24.742;2023-07-29T10:07:43;7.03;;;2.03;;
20894;SDS011;10607;42.066;24.742;2023-07-29T10:10:09;7.50;;;2.58;;
20894;SDS011;10607;42.066;24.742;2023-07-29T10:12:35;6.47;;;2.35;;
20894;SDS011;10607;42.066;24.742;2023-07-29T10:15:02;8.45;;;2.70;;
20894;SDS011;10607;42.066;24.742;2023-07-29T10:17:27;6.70;;;2.40;;
20894;SDS011;10607;42.066;24.742;2023-07-29T10:19:53;5.80;;;2.42;;
20894;SDS011;10607;42.066;24.742;2023-07-29T10:22:20;8.93;;;2.58;;
20894;SDS011;10607;42.066;24.742;2023-07-29T10:24:46;6.20;;;2.30;;
20894;SDS011;10607;42.066;24.742;2023-07-29T10:27:13;4.05;;;2.15;;
20894;SDS011;10607;42.066;24.742;2023-07-29T10:29:42;3.90;;;2.40;;
20894;SDS011;10607;42.066;24.742;2023-07-29T10:32:09;3.80;;;2.60;;
20894;SDS011;10607;42.066;24.742;2023-07-29T10:34:35;8.73;;;2.33;;
20894;SDS011;10607;42.066;24.742;2023-07-29T10:37:01;5.40;;;2.75;;
20894;SDS011;10607;42.066;24.742;2023-07-29T10:39:27;8.32;;;2.47;;
20894;SDS011;10607;42.066;24.742;2023-07-29T10:41:56;7.90;;;2.58;;
20894;SDS011;10607;42.066;24.742;2023-07-29T10:47:11;7.03;;;2.60;;
20894;SDS011;10607;42.066;24.742;2023-07-29T10:49:39;4.00;;;2.42;;
20894;SDS011;10607;42.066;24.742;2023-07-29T10:52:05;3.80;;;2.08;;
20894;SDS011;10607;42.066;24.742;2023-07-29T10:54:30;5.03;;;2.30;;
20894;SDS011;10607;42.066;24.742;2023-07-29T10:56:56;3.95;;;2.25;;
20894;SDS011;10607;42.066;24.742;2023-07-29T10:59:31;5.80;;;2.55;;
20894;SDS011;10607;42.066;24.742;2023-07-29T11:01:59;2.35;;;2.10;;
20894;SDS011;10607;42.066;24.742;2023-07-29T11:07:01;5.15;;;1.98;;
20894;SDS011;10607;42.066;24.742;2023-07-29T11:14:48;6.63;;;2.38;;
20894;SDS011;10607;42.066;24.742;2023-07-29T11:17:13;4.88;;;2.22;;
20894;SDS011;10607;42.066;24.742;2023-07-29T11:19:39;3.58;;;2.13;;
20894;SDS011;10607;42.066;24.742;2023-07-29T11:22:04;2.65;;;2.13;;
20894;SDS011;10607;42.066;24.742;2023-07-29T11:24:30;4.72;;;2.40;;
20894;SDS011;10607;42.066;24.742;2023-07-29T11:26:55;5.30;;;2.53;;
20894;SDS011;10607;42.066;24.742;2023-07-29T11:29:20;3.13;;;2.13;;
20894;SDS011;10607;42.066;24.742;2023-07-29T11:31:45;7.18;;;2.05;;
20894;SDS011;10607;42.066;24.742;2023-07-29T11:34:11;3.85;;;1.83;;
20894;SDS011;10607;42.066;24.742;2023-07-29T11:36:43;10.15;;;2.25;;
20894;SDS011;10607;42.066;24.742;2023-07-29T11:39:09;4.25;;;1.77;;
20894;SDS011;10607;42.066;24.742;2023-07-29T11:41:34;6.22;;;2.05;;
20894;SDS011;10607;42.066;24.742;2023-07-29T11:43:59;3.42;;;1.75;;
20894;SDS011;10607;42.066;24.742;2023-07-29T11:46:25;4.00;;;1.73;;
20894;SDS011;10607;42.066;24.742;2023-07-29T11:48:50;7.63;;;2.10;;
20894;SDS011;10607;42.066;24.742;2023-07-29T11:51:16;6.55;;;2.10;;
20894;SDS011;10607;42.066;24.742;2023-07-29T11:53:41;3.53;;;1.50;;
20894;SDS011;10607;42.066;24.742;2023-07-29T11:56:07;6.47;;;1.60;;
20894;SDS011;10607;42.066;24.742;2023-07-29T11:58:32;1.80;;;1.63;;
20894;SDS011;10607;42.066;24.742;2023-07-29T12:00:58;3.30;;;1.90;;
20894;SDS011;10607;42.066;24.742;2023-07-29T12:03:23;3.80;;;1.85;;
20894;SDS011;10607;42.066;24.742;2023-07-29T12:05:49;4.97;;;2.03;;
20894;SDS011;10607;42.066;24.742;2023-07-29T12:08:14;4.47;;;1.95;;
20894;SDS011;10607;42.066;24.742;2023-07-29T12:10:40;8.27;;;2.08;;
20894;SDS011;10607;42.066;24.742;2023-07-29T12:13:05;4.07;;;1.85;;
20894;SDS011;10607;42.066;24.742;2023-07-29T12:15:32;4.88;;;1.30;;
20894;SDS011;10607;42.066;24.742;2023-07-29T12:17:58;6.70;;;1.20;;
20894;SDS011;10607;42.066;24.742;2023-07-29T12:20:23;3.38;;;1.60;;
20894;SDS011;10607;42.066;24.742;2023-07-29T12:22:52;3.60;;;1.75;;
20894;SDS011;10607;42.066;24.742;2023-07-29T12:25:18;3.15;;;1.48;;
20894;SDS011;10607;42.066;24.742;2023-07-29T12:27:43;5.85;;;1.40;;
20894;SDS011;10607;42.066;24.742;2023-07-29T12:30:09;3.10;;;1.40;;
20894;SDS011;10607;42.066;24.742;2023-07-29T12:32:42;2.40;;;1.10;;
20894;SDS011;10607;42.066;24.742;2023-07-29T12:35:09;5.28;;;1.17;;
20894;SDS011;10607;42.066;24.742;2023-07-29T12:37:34;5.75;;;1.52;;
20894;SDS011;10607;42.066;24.742;2023-07-29T12:40:00;1.50;;;1.23;;
20894;SDS011;10607;42.066;24.742;2023-07-29T12:42:25;2.85;;;1.50;;
20894;SDS011;10607;42.066;24.742;2023-07-29T12:44:50;3.13;;;1.05;;
20894;SDS011;10607;42.066;24.742;2023-07-29T12:47:15;0.85;;;0.73;;
20894;SDS011;10607;42.066;24.742;2023-07-29T12:49:41;1.73;;;1.27;;
20894;SDS011;10607;42.066;24.742;2023-07-29T12:52:06;1.77;;;1.30;;
20894;SDS011;10607;42.066;24.742;2023-07-29T12:54:31;4.22;;;1.40;;
20894;SDS011;10607;42.066;24.742;2023-07-29T12:56:57;3.53;;;1.55;;
20894;SDS011;10607;42.066;24.742;2023-07-29T12:59:22;2.22;;;1.40;;
20894;SDS011;10607;42.066;24.742;2023-07-29T13:01:47;3.50;;;1.30;;
20894;SDS011;10607;42.066;24.742;2023-07-29T13:04:13;2.47;;;1.30;;
20894;SDS011;10607;42.066;24.742;2023-07-29T13:06:38;10.52;;;1.30;;
20894;SDS011;10607;42.066;24.742;2023-07-29T13:09:04;4.32;;;1.50;;
20894;SDS011;10607;42.066;24.742;2023-07-29T13:11:30;2.53;;;1.30;;
20894;SDS011;10607;42.066;24.742;2023-07-29T13:13:57;1.17;;;0.95;;
20894;SDS011;10607;42.066;24.742;2023-07-29T13:16:22;3.33;;;0.98;;
20894;SDS011;10607;42.066;24.742;2023-07-29T13:18:48;3.03;;;2.22;;
20894;SDS011;10607;42.066;24.742;2023-07-29T13:21:13;4.72;;;1.90;;
20894;SDS011;10607;42.066;24.742;2023-07-29T13:23:38;6.65;;;1.58;;
20894;SDS011;10607;42.066;24.742;2023-07-29T13:26:03;2.63;;;1.00;;
20894;SDS011;10607;42.066;24.742;2023-07-29T13:28:29;3.85;;;0.82;;
20894;SDS011;10607;42.066;24.742;2023-07-29T13:30:54;4.85;;;0.85;;
20894;SDS011;10607;42.066;24.742;2023-07-29T13:33:19;5.10;;;1.00;;
20894;SDS011;10607;42.066;24.742;2023-07-29T13:35:45;1.75;;;0.95;;
20894;SDS011;10607;42.066;24.742;2023-07-29T13:38:10;2.30;;;0.90;;
20894;SDS011;10607;42.066;24.742;2023-07-29T13:40:36;1.63;;;0.95;;
20894;SDS011;10607;42.066;24.742;2023-07-29T13:43:01;1.35;;;1.10;;
20894;SDS011;10607;42.066;24.742;2023-07-29T13:45:26;2.40;;;0.90;;
20894;SDS011;10607;42.066;24.742;2023-07-29T13:47:52;1.25;;;1.05;;
20894;SDS011;10607;42.066;24.742;2023-07-29T13:50:17;2.83;;;0.90;;
20894;SDS011;10607;42.066;24.742;2023-07-29T13:52:43;1.10;;;0.70;;
20894;SDS011;10607;42.066;24.742;2023-07-29T13:55:08;2.53;;;1.05;;
20894;SDS011;10607;42.066;24.742;2023-07-29T13:57:33;8.27;;;1.17;;
20894;SDS011;10607;42.066;24.742;2023-07-29T13:59:59;2.30;;;1.17;;
20894;SDS011;10607;42.066;24.742;2023-07-29T14:02:24;2.97;;;0.88;;
20894;SDS011;10607;42.066;24.742;2023-07-29T14:04:51;3.17;;;0.80;;
20894;SDS011;10607;42.066;24.742;2023-07-29T14:07:16;1.77;;;0.95;;
20894;SDS011;10607;42.066;24.742;2023-07-29T14:09:41;2.83;;;1.00;;
20894;SDS011;10607;42.066;24.742;2023-07-29T14:12:08;5.45;;;1.08;;
20894;SDS011;10607;42.066;24.742;2023-07-29T14:14:37;5.32;;;1.17;;
20894;SDS011;10607;42.066;24.742;2023-07-29T14:17:02;2.88;;;0.70;;
20894;SDS011;10607;42.066;24.742;2023-07-29T14:19:27;4.82;;;1.10;;
20894;SDS011;10607;42.066;24.742;2023-07-29T14:21:53;1.45;;;1.20;;
20894;SDS011;10607;42.066;24.742;2023-07-29T14:24:18;3.83;;;1.48;;
20894;SDS011;10607;42.066;24.742;2023-07-29T14:26:44;1.42;;;0.70;;
20894;SDS011;10607;42.066;24.742;2023-07-29T14:29:10;4.45;;;0.90;;
20894;SDS011;10607;42.066;24.742;2023-07-29T14:31:35;4.53;;;1.00;;
20894;SDS011;10607;42.066;24.742;2023-07-29T14:34:00;2.38;;;1.20;;
20894;SDS011;10607;42.066;24.742;2023-07-29T14:36:26;3.35;;;1.10;;
20894;SDS011;10607;42.066;24.742;2023-07-29T14:38:51;3.13;;;0.80;;
20894;SDS011;10607;42.066;24.742;2023-07-29T14:41:17;1.70;;;1.20;;
20894;SDS011;10607;42.066;24.742;2023-07-29T14:43:42;1.58;;;0.95;;